createdAt,value
2022-08-20T00:02:14.767Z,5.35
2022-08-20T00:04:42.232Z,6.35
2022-08-20T00:07:09.509Z,7.25
2022-08-20T00:09:37.096Z,8.70
2022-08-20T00:12:06.765Z,9.65
2022-08-20T00:14:35.179Z,9.50
2022-08-20T00:17:05.794Z,9.35
2022-08-20T00:19:33.680Z,10.02
2022-08-20T00:22:01.053Z,10.15
2022-08-20T00:24:28.348Z,9.60
2022-08-20T00:26:55.669Z,9.05
2022-08-20T00:29:23.055Z,8.85
2022-08-20T00:31:51.104Z,9.65
2022-08-20T00:34:19.308Z,9.18
2022-08-20T00:36:46.994Z,8.95
2022-08-20T00:39:14.307Z,8.18
2022-08-20T00:41:41.596Z,8.43
2022-08-20T00:44:21.885Z,8.95
2022-08-20T00:46:51.285Z,8.82
2022-08-20T00:49:32.007Z,9.07
2022-08-20T00:52:12.904Z,9.35
2022-08-20T00:55:00.782Z,9.23
2022-08-20T00:57:43.515Z,9.20
2022-08-20T01:00:39.264Z,9.82
2022-08-20T01:03:10.404Z,9.38
2022-08-20T01:05:42.158Z,8.93
2022-08-20T01:08:09.432Z,8.57
2022-08-20T01:10:42.317Z,8.68
2022-08-20T01:13:15.639Z,9.75
2022-08-20T01:15:47.574Z,9.85
2022-08-20T01:18:27.858Z,9.50
2022-08-20T01:21:03.319Z,10.25
2022-08-20T01:26:40.884Z,9.75
2022-08-20T01:29:19.773Z,9.82
2022-08-20T01:31:47.141Z,9.98
2022-08-20T01:34:20.439Z,9.95
2022-08-20T01:36:53.031Z,9.00
2022-08-20T01:39:26.844Z,9.73
2022-08-20T01:42:30.213Z,9.60
2022-08-20T01:44:57.562Z,10.43
2022-08-20T01:47:38.560Z,11.07
2022-08-20T01:50:24.116Z,11.77
2022-08-20T01:53:37.833Z,10.27
2022-08-20T01:56:14.188Z,11.15
2022-08-20T01:58:56.155Z,10.85
2022-08-20T02:01:45.821Z,10.45
2022-08-20T02:04:17.191Z,11.70
2022-08-20T02:06:56.383Z,10.77
2022-08-20T02:09:37.777Z,10.57
2022-08-20T02:12:08.429Z,10.82
2022-08-20T02:14:51.270Z,10.40
2022-08-20T02:17:22.897Z,10.70
2022-08-20T02:20:00.436Z,10.57
2022-08-20T02:22:50.050Z,11.07
2022-08-20T02:25:23.063Z,10.45
2022-08-20T02:27:52.897Z,11.35
2022-08-20T02:30:34.158Z,11.20
2022-08-20T02:33:06.156Z,10.25
2022-08-20T02:35:35.089Z,10.52
2022-08-20T02:38:03.799Z,11.30
2022-08-20T02:40:32.384Z,10.35
2022-08-20T02:43:02.198Z,10.05
2022-08-20T02:45:37.375Z,10.05
2022-08-20T02:48:05.574Z,10.18
2022-08-20T02:50:33.084Z,10.35
2022-08-20T02:53:00.390Z,10.27
2022-08-20T02:55:28.486Z,10.65
2022-08-20T02:57:59.676Z,10.65
2022-08-20T03:00:38.517Z,11.02
2022-08-20T03:03:11.629Z,11.00
2022-08-20T03:05:42.823Z,11.18
2022-08-20T03:08:13.765Z,10.73
2022-08-20T03:10:44.772Z,10.25
2022-08-20T03:13:14.770Z,10.77
2022-08-20T03:15:51.327Z,11.30
2022-08-20T03:18:22.745Z,10.43
2022-08-20T03:20:51.380Z,12.30
2022-08-20T03:23:21.657Z,12.27
2022-08-20T03:25:49.624Z,13.55
2022-08-20T03:28:19.345Z,13.18
2022-08-20T03:30:47.284Z,12.35
2022-08-20T03:33:16.149Z,12.80
2022-08-20T03:35:43.789Z,12.45
2022-08-20T03:38:14.325Z,13.00
2022-08-20T03:40:43.485Z,12.63
2022-08-20T03:43:12.568Z,12.02
2022-08-20T03:45:43.909Z,11.98
2022-08-20T03:48:17.797Z,12.27
2022-08-20T03:50:47.294Z,11.90
2022-08-20T03:53:15.756Z,12.48
2022-08-20T03:55:53.957Z,12.40
2022-08-20T03:58:34.604Z,11.65
2022-08-20T04:01:06.857Z,11.95
2022-08-20T04:03:35.222Z,12.65
2022-08-20T04:06:03.040Z,13.10
2022-08-20T04:08:31.160Z,13.20
2022-08-20T04:10:59.976Z,12.63
2022-08-20T04:13:30.808Z,14.00
2022-08-20T04:16:01.836Z,13.18
2022-08-20T04:18:29.798Z,13.45
2022-08-20T04:20:57.117Z,13.35
2022-08-20T04:23:24.433Z,13.50
2022-08-20T04:25:51.722Z,12.50
2022-08-20T04:28:27.013Z,12.68
2022-08-20T04:30:59.785Z,13.55
2022-08-20T04:33:35.392Z,13.38
2022-08-20T04:36:06.092Z,13.98
2022-08-20T04:38:47.908Z,13.20
2022-08-20T04:41:24.022Z,12.63
2022-08-20T04:43:56.831Z,13.40
2022-08-20T04:46:28.783Z,12.60
2022-08-20T04:48:57.759Z,13.15
2022-08-20T04:51:26.775Z,12.57
2022-08-20T04:53:57.260Z,12.93
2022-08-20T04:56:38.837Z,11.88
2022-08-20T04:59:07.460Z,12.35
2022-08-20T05:01:35.233Z,12.88
2022-08-20T05:04:02.705Z,13.38
2022-08-20T05:06:32.321Z,15.30
2022-08-20T05:09:01.159Z,14.93
2022-08-20T05:11:34.652Z,16.83
2022-08-20T05:14:08.597Z,17.25
2022-08-20T05:16:41.022Z,16.63
2022-08-20T05:19:12.991Z,17.10
2022-08-20T05:21:41.081Z,15.20
2022-08-20T05:24:10.091Z,15.35
2022-08-20T05:26:37.556Z,17.30
2022-08-20T05:29:06.793Z,16.50
2022-08-20T05:31:35.510Z,18.13
2022-08-20T05:34:12.699Z,19.48
2022-08-20T05:36:50.378Z,18.67
2022-08-20T05:39:23.296Z,18.80
2022-08-20T05:41:51.315Z,20.58
2022-08-20T05:44:19.852Z,22.25
2022-08-20T05:46:48.352Z,20.60
2022-08-20T05:49:20.922Z,19.92
2022-08-20T05:51:51.276Z,19.60
2022-08-20T05:54:18.757Z,19.42
2022-08-20T05:56:46.219Z,19.05
2022-08-20T05:59:14.040Z,19.35
2022-08-20T06:01:42.921Z,19.45
2022-08-20T06:04:31.975Z,21.55
2022-08-20T06:07:07.071Z,22.20
2022-08-20T06:09:36.178Z,20.15
2022-08-20T06:12:08.354Z,18.38
2022-08-20T06:14:36.126Z,19.42
2022-08-20T06:17:17.209Z,17.65
2022-08-20T06:19:47.280Z,16.60
2022-08-20T06:22:19.195Z,12.25
2022-08-20T06:24:52.801Z,8.82
2022-08-20T06:27:21.713Z,9.88
2022-08-20T06:29:50.885Z,11.63
2022-08-20T06:32:31.712Z,10.80
2022-08-20T06:35:03.777Z,11.15
2022-08-20T06:37:36.401Z,10.32
2022-08-20T06:40:11.468Z,10.55
2022-08-20T06:42:47.419Z,9.20
2022-08-20T06:45:25.710Z,8.50
2022-08-20T06:48:01.150Z,7.82
2022-08-20T06:53:20.569Z,8.02
2022-08-20T06:55:55.988Z,9.55
2022-08-20T07:01:11.045Z,10.95
2022-08-20T07:03:55.096Z,12.93
2022-08-20T07:06:27.328Z,13.40
2022-08-20T07:08:55.723Z,13.80
2022-08-20T07:11:27.712Z,13.93
2022-08-20T07:13:58.331Z,12.80
2022-08-20T07:16:26.220Z,11.80
2022-08-20T07:18:53.500Z,11.68
2022-08-20T07:21:20.962Z,11.27
2022-08-20T07:23:49.312Z,10.30
2022-08-20T07:26:17.870Z,11.15
2022-08-20T07:28:46.040Z,13.15
2022-08-20T07:31:32.101Z,9.63
2022-08-20T07:34:03.437Z,8.23
2022-08-20T07:36:31.311Z,9.90
2022-08-20T07:38:58.818Z,9.57
2022-08-20T07:41:26.073Z,12.57
2022-08-20T07:43:53.409Z,12.55
2022-08-20T07:46:21.731Z,13.27
2022-08-20T07:48:51.284Z,16.27
2022-08-20T07:51:22.168Z,15.45
2022-08-20T07:53:51.663Z,15.10
2022-08-20T07:56:24.198Z,14.55
2022-08-20T07:58:56.701Z,14.30
2022-08-20T08:01:30.646Z,15.50
2022-08-20T08:04:00.037Z,15.52
2022-08-20T08:06:31.276Z,14.93
2022-08-20T08:09:12.977Z,15.07
2022-08-20T08:11:50.486Z,12.90
2022-08-20T08:14:24.770Z,14.38
2022-08-20T08:16:57.185Z,13.35
2022-08-20T08:19:28.285Z,13.32
2022-08-20T08:21:57.459Z,13.23
2022-08-20T08:24:28.499Z,12.95
2022-08-20T08:26:56.119Z,12.55
2022-08-20T08:29:23.453Z,12.32
2022-08-20T08:31:50.733Z,11.95
2022-08-20T08:34:18.008Z,11.65
2022-08-20T08:36:45.460Z,11.73
2022-08-20T08:39:12.745Z,11.93
2022-08-20T08:41:50.230Z,11.45
2022-08-20T08:44:27.179Z,10.95
2022-08-20T08:47:13.734Z,10.48
2022-08-20T08:49:41.044Z,9.15
2022-08-20T08:52:33.470Z,9.55
2022-08-20T08:55:08.054Z,9.63
2022-08-20T08:57:35.458Z,8.77
2022-08-20T09:00:15.250Z,8.85
2022-08-20T09:03:04.510Z,7.22
2022-08-20T09:05:46.022Z,6.68
2022-08-20T09:08:20.084Z,5.80
2022-08-20T09:10:47.384Z,5.38
2022-08-20T09:13:14.669Z,5.90
2022-08-20T09:15:42.861Z,4.65
2022-08-20T09:18:10.182Z,4.38
2022-08-20T09:20:37.416Z,5.05
2022-08-20T09:23:07.605Z,4.43
2022-08-20T09:25:34.961Z,4.72
2022-08-20T09:28:02.642Z,4.05
2022-08-20T09:30:31.105Z,4.53
2022-08-20T09:33:00.862Z,4.03
2022-08-20T09:35:29.816Z,3.38
2022-08-20T09:37:57.211Z,3.55
2022-08-20T09:40:24.739Z,3.55
2022-08-20T09:42:52.191Z,3.50
2022-08-20T09:45:20.377Z,3.55
2022-08-20T09:47:54.702Z,2.50
2022-08-20T09:50:30.808Z,2.50
2022-08-20T09:53:02.517Z,2.50
2022-08-20T09:55:53.100Z,2.75
2022-08-20T09:58:51.157Z,2.42
2022-08-20T10:01:21.755Z,2.83
2022-08-20T10:03:51.001Z,3.03
2022-08-20T10:06:20.422Z,2.80
2022-08-20T10:08:49.832Z,3.13
2022-08-20T10:11:18.539Z,3.03
2022-08-20T10:13:46.153Z,3.20
2022-08-20T10:16:13.937Z,3.60
2022-08-20T10:18:41.363Z,3.42
2022-08-20T10:21:12.949Z,3.55
2022-08-20T10:23:40.493Z,3.20
2022-08-20T10:26:12.957Z,2.90
2022-08-20T10:28:40.509Z,3.25
2022-08-20T10:31:12.985Z,3.33
2022-08-20T10:33:42.291Z,3.15
2022-08-20T10:36:15.530Z,3.13
2022-08-20T10:38:44.262Z,3.05
2022-08-20T10:41:12.009Z,3.38
2022-08-20T10:43:39.254Z,2.63
2022-08-20T10:46:06.952Z,2.95
2022-08-20T10:48:34.617Z,2.80
2022-08-20T10:51:01.932Z,2.70
2022-08-20T10:53:29.401Z,2.42
2022-08-20T10:55:57.864Z,2.72
2022-08-20T10:58:27.207Z,2.35
2022-08-20T11:01:05.468Z,2.72
2022-08-20T11:03:32.968Z,2.65
2022-08-20T11:06:00.473Z,2.42
2022-08-20T11:08:34.725Z,2.30
2022-08-20T11:11:05.797Z,2.42
2022-08-20T11:13:35.464Z,2.40
2022-08-20T11:16:04.583Z,2.78
2022-08-20T11:18:33.021Z,2.60
2022-08-20T11:21:01.362Z,2.63
2022-08-20T11:23:28.777Z,2.40
2022-08-20T11:25:58.591Z,2.25
2022-08-20T11:28:31.413Z,2.10
2022-08-20T11:31:01.516Z,2.20
2022-08-20T11:33:29.233Z,2.30
2022-08-20T11:35:57.032Z,2.10
2022-08-20T11:38:24.881Z,3.08
2022-08-20T11:40:52.205Z,2.17
2022-08-20T11:43:19.457Z,2.10
2022-08-20T11:45:54.612Z,2.10
2022-08-20T11:48:23.202Z,2.10
2022-08-20T11:50:50.792Z,2.40
2022-08-20T11:53:18.192Z,2.00
2022-08-20T11:55:47.308Z,2.40
2022-08-20T11:58:15.361Z,2.20
2022-08-20T12:00:42.921Z,2.20
2022-08-20T12:03:11.759Z,2.40
2022-08-20T12:05:44.836Z,2.20
2022-08-20T12:08:25.281Z,2.22
2022-08-20T12:11:02.469Z,2.60
2022-08-20T12:13:48.313Z,2.20
2022-08-20T12:16:19.222Z,2.10
2022-08-20T12:18:48.150Z,2.17
2022-08-20T12:21:16.406Z,2.75
2022-08-20T12:23:44.258Z,2.13
2022-08-20T12:26:11.971Z,2.03
2022-08-20T12:28:39.461Z,2.00
2022-08-20T12:31:06.793Z,2.42
2022-08-20T12:33:34.152Z,2.03
2022-08-20T12:36:01.643Z,2.05
2022-08-20T12:38:28.887Z,2.10
2022-08-20T12:40:56.235Z,2.40
2022-08-20T12:43:25.257Z,2.20
2022-08-20T12:45:52.924Z,1.90
2022-08-20T12:48:21.020Z,2.10
2022-08-20T12:50:49.960Z,2.42
2022-08-20T12:53:17.565Z,1.95
2022-08-20T12:55:46.324Z,2.05
2022-08-20T12:58:13.564Z,2.00
2022-08-20T13:00:47.463Z,2.05
2022-08-20T13:03:20.246Z,1.80
2022-08-20T13:05:48.929Z,1.80
2022-08-20T13:08:17.883Z,1.95
2022-08-20T13:10:46.260Z,2.13
2022-08-20T13:13:17.505Z,1.80
2022-08-20T13:15:48.829Z,1.90
2022-08-20T13:18:16.327Z,2.00
2022-08-20T13:20:43.786Z,2.10
2022-08-20T13:23:11.071Z,1.98
2022-08-20T13:25:38.521Z,2.30
2022-08-20T13:28:06.357Z,2.00
2022-08-20T13:30:38.338Z,2.10
2022-08-20T13:33:05.703Z,1.70
2022-08-20T13:35:33.126Z,1.80
2022-08-20T13:38:00.591Z,1.85
2022-08-20T13:40:28.208Z,1.83
2022-08-20T13:42:55.646Z,1.88
2022-08-20T13:45:22.931Z,2.10
2022-08-20T13:47:55.146Z,2.25
2022-08-20T13:50:25.940Z,1.80
2022-08-20T13:52:53.877Z,1.80
2022-08-20T13:55:25.937Z,2.00
2022-08-20T13:57:55.314Z,1.80
2022-08-20T14:00:32.655Z,1.73
2022-08-20T14:03:03.932Z,1.70
2022-08-20T14:05:32.624Z,1.75
2022-08-20T14:08:21.676Z,1.63
2022-08-20T14:10:51.336Z,1.75
2022-08-20T14:13:23.845Z,1.55
2022-08-20T14:15:51.953Z,1.63
2022-08-20T14:18:19.946Z,1.67
2022-08-20T14:20:47.424Z,1.83
2022-08-20T14:23:15.953Z,1.83
2022-08-20T14:25:47.926Z,1.83
2022-08-20T14:28:23.956Z,1.60
2022-08-20T14:30:53.129Z,1.42
2022-08-20T14:33:24.441Z,1.65
2022-08-20T14:35:52.814Z,1.65
2022-08-20T14:38:20.064Z,1.45
2022-08-20T14:40:47.460Z,1.65
2022-08-20T14:43:14.898Z,1.30
2022-08-20T14:45:42.133Z,1.50
2022-08-20T14:48:09.408Z,1.75
2022-08-20T14:50:38.021Z,1.70
2022-08-20T14:53:06.523Z,1.40
2022-08-20T14:55:37.715Z,1.30
2022-08-20T14:58:11.506Z,1.40
2022-08-20T15:00:39.831Z,1.50
2022-08-20T15:03:07.526Z,1.42
2022-08-20T15:05:39.523Z,1.50
2022-08-20T15:08:08.668Z,1.38
2022-08-20T15:10:39.358Z,1.60
2022-08-20T15:13:07.221Z,1.30
2022-08-20T15:15:35.327Z,1.42
2022-08-20T15:18:03.422Z,1.40
2022-08-20T15:20:35.025Z,1.40
2022-08-20T15:23:03.844Z,1.70
2022-08-20T15:25:37.071Z,1.65
2022-08-20T15:28:09.003Z,1.35
2022-08-20T15:30:40.189Z,1.30
2022-08-20T15:33:09.197Z,1.30
2022-08-20T15:35:37.116Z,1.33
2022-08-20T15:38:04.368Z,1.40
2022-08-20T15:40:33.547Z,1.30
2022-08-20T15:43:04.300Z,1.50
2022-08-20T15:45:33.425Z,1.20
2022-08-20T15:48:13.360Z,1.30
2022-08-20T15:51:19.535Z,1.40
2022-08-20T15:54:06.758Z,1.30
2022-08-20T15:57:38.890Z,1.50
2022-08-20T16:00:21.271Z,1.40
2022-08-20T16:03:37.616Z,1.33
2022-08-20T16:06:25.674Z,1.40
2022-08-20T16:09:14.586Z,1.30
2022-08-20T16:12:12.350Z,1.13
2022-08-20T16:14:47.857Z,1.35
2022-08-20T16:17:37.240Z,1.38
2022-08-20T16:20:35.863Z,1.40
2022-08-20T16:23:04.256Z,1.25
2022-08-20T16:26:05.408Z,1.30
2022-08-20T16:29:41.040Z,1.40
2022-08-20T16:32:33.508Z,1.30
2022-08-20T16:35:33.202Z,1.42
2022-08-20T16:38:38.225Z,1.20
2022-08-20T16:41:34.981Z,1.30
2022-08-20T16:44:30.694Z,1.20
2022-08-20T16:47:20.902Z,1.20
2022-08-20T16:50:11.319Z,1.30
2022-08-20T16:52:45.384Z,1.30
2022-08-20T16:55:14.848Z,1.13
2022-08-20T16:57:42.845Z,1.77
2022-08-20T17:00:39.013Z,1.20
2022-08-20T17:03:31.640Z,1.27
2022-08-20T17:06:36.989Z,1.30
2022-08-20T17:09:13.015Z,1.30
2022-08-20T17:11:41.505Z,1.42
2022-08-20T17:14:18.772Z,1.30
2022-08-20T17:16:53.053Z,1.30
2022-08-20T17:19:29.685Z,1.30
2022-08-20T17:22:11.530Z,1.20
2022-08-20T17:24:40.139Z,1.10
2022-08-20T17:27:28.026Z,1.10
2022-08-20T17:30:20.082Z,1.20
2022-08-20T17:33:01.109Z,1.33
2022-08-20T17:36:02.492Z,1.30
2022-08-20T17:38:56.278Z,1.30
2022-08-20T17:41:35.915Z,1.30
2022-08-20T17:44:09.172Z,1.45
2022-08-20T17:46:45.699Z,1.35
2022-08-20T17:49:21.465Z,1.40
2022-08-20T17:51:54.410Z,1.60
2022-08-20T17:54:32.787Z,3.83
2022-08-20T17:57:11.373Z,7.00
2022-08-20T18:00:02.337Z,1.40
2022-08-20T18:02:34.786Z,1.23
2022-08-20T18:05:06.810Z,1.50
2022-08-20T18:08:16.707Z,1.20
2022-08-20T18:11:56.303Z,1.20
2022-08-20T18:15:09.274Z,1.80
2022-08-20T18:18:07.145Z,1.73
2022-08-20T18:21:20.430Z,1.60
2022-08-20T18:24:30.241Z,1.10
2022-08-20T18:27:08.772Z,1.27
2022-08-20T18:29:42.545Z,1.35
2022-08-20T18:32:34.085Z,1.30
2022-08-20T18:35:45.744Z,1.20
2022-08-20T18:38:22.842Z,1.50
2022-08-20T18:40:55.109Z,1.50
2022-08-20T18:43:31.351Z,1.48
2022-08-20T18:46:35.180Z,1.20
2022-08-20T18:49:07.648Z,1.20
2022-08-20T18:51:49.606Z,1.45
2022-08-20T18:54:32.349Z,0.85
2022-08-20T18:57:21.989Z,1.10
2022-08-20T19:00:14.653Z,2.75
2022-08-20T19:03:20.715Z,1.45
2022-08-20T19:06:20.653Z,1.52
2022-08-20T19:09:43.288Z,1.10
2022-08-20T19:13:16.900Z,1.33
2022-08-20T19:15:54.146Z,1.20
2022-08-20T19:18:40.781Z,1.02
2022-08-20T19:21:15.911Z,1.20
2022-08-20T19:23:53.399Z,1.20
2022-08-20T19:26:25.158Z,1.20
2022-08-20T19:29:09.275Z,1.20
2022-08-20T19:31:36.964Z,1.15
2022-08-20T19:34:22.339Z,1.20
2022-08-20T19:37:32.778Z,1.50
2022-08-20T19:40:08.496Z,1.30
2022-08-20T19:42:43.113Z,1.58
2022-08-20T19:45:46.600Z,1.60
2022-08-20T19:49:10.091Z,1.90
2022-08-20T19:51:58.393Z,1.80
2022-08-20T19:54:29.437Z,1.60
2022-08-20T19:57:06.897Z,1.70
2022-08-20T19:59:34.737Z,1.48
2022-08-20T20:02:20.588Z,1.88
2022-08-20T20:04:54.972Z,1.70
2022-08-20T20:07:45.316Z,1.60
2022-08-20T20:10:32.743Z,2.00
2022-08-20T20:13:19.881Z,1.90
2022-08-20T20:15:50.535Z,2.15
2022-08-20T20:18:17.839Z,1.80
2022-08-20T20:20:58.136Z,1.80
2022-08-20T20:23:41.691Z,2.13
2022-08-20T20:26:20.208Z,1.98
2022-08-20T20:29:01.927Z,2.13
2022-08-20T20:31:38.409Z,2.33
2022-08-20T20:34:13.861Z,2.13
2022-08-20T20:36:46.894Z,1.90
2022-08-20T20:39:33.608Z,2.10
2022-08-20T20:42:12.760Z,2.35
2022-08-20T20:44:44.693Z,2.20
2022-08-20T20:47:32.010Z,2.60
2022-08-20T20:50:08.105Z,2.63
2022-08-20T20:52:51.627Z,2.30
2022-08-20T20:55:37.678Z,2.58
2022-08-20T20:58:05.489Z,2.42
2022-08-20T21:00:35.117Z,2.28
2022-08-20T21:03:02.843Z,2.47
2022-08-20T21:05:32.911Z,2.28
2022-08-20T21:08:04.596Z,2.40
2022-08-20T21:10:37.034Z,2.38
2022-08-20T21:13:08.121Z,2.90
2022-08-20T21:15:38.483Z,2.90
2022-08-20T21:18:09.076Z,2.45
2022-08-20T21:20:36.809Z,2.72
2022-08-20T21:23:04.949Z,2.58
2022-08-20T21:25:34.098Z,2.67
2022-08-20T21:28:02.046Z,2.40
2022-08-20T21:30:31.358Z,2.42
2022-08-20T21:32:58.954Z,2.67
2022-08-20T21:35:26.811Z,2.80
2022-08-20T21:37:54.299Z,2.35
2022-08-20T21:40:22.065Z,2.67
2022-08-20T21:42:50.013Z,2.67
2022-08-20T21:45:19.521Z,2.70
2022-08-20T21:47:49.046Z,2.47
2022-08-20T21:50:19.304Z,2.45
2022-08-20T21:52:55.101Z,3.47
2022-08-20T21:55:28.691Z,2.38
2022-08-20T21:57:57.585Z,2.10
2022-08-20T22:00:56.708Z,2.63
2022-08-20T22:03:38.681Z,2.20
2022-08-20T22:06:09.591Z,2.22
2022-08-20T22:08:37.509Z,2.10
2022-08-20T22:11:07.644Z,2.20
2022-08-20T22:13:35.840Z,2.10
2022-08-20T22:16:09.671Z,2.40
2022-08-20T22:18:37.839Z,2.17
2022-08-20T22:21:11.639Z,2.40
2022-08-20T22:23:40.150Z,2.42
2022-08-20T22:26:08.505Z,2.30
2022-08-20T22:28:36.977Z,2.10
2022-08-20T22:31:05.473Z,2.30
2022-08-20T22:33:34.194Z,2.13
2022-08-20T22:36:04.670Z,2.67
2022-08-20T22:38:32.145Z,2.08
2022-08-20T22:40:59.566Z,2.67
2022-08-20T22:43:26.869Z,2.00
2022-08-20T22:46:00.041Z,2.03
2022-08-20T22:48:28.253Z,2.03
2022-08-20T22:50:58.076Z,1.80
2022-08-20T22:53:27.097Z,2.20
2022-08-20T22:55:54.953Z,1.90
2022-08-20T22:58:30.923Z,2.28
2022-08-20T23:01:02.167Z,2.00
2022-08-20T23:03:40.199Z,2.13
2022-08-20T23:06:09.568Z,2.28
2022-08-20T23:08:38.094Z,2.92
2022-08-20T23:11:06.163Z,2.53
2022-08-20T23:13:34.531Z,2.83
2022-08-20T23:16:02.060Z,2.42
2022-08-20T23:18:29.386Z,2.40
2022-08-20T23:20:59.115Z,2.30
2022-08-20T23:23:27.613Z,2.05
2022-08-20T23:25:55.709Z,2.17
2022-08-20T23:28:25.688Z,2.05
2022-08-20T23:30:53.374Z,2.17
2022-08-20T23:33:21.072Z,1.70
2022-08-20T23:35:48.876Z,1.63
2022-08-20T23:38:16.461Z,1.65
2022-08-20T23:40:44.023Z,1.67
2022-08-20T23:43:11.262Z,1.45
2022-08-20T23:45:40.848Z,1.75
2022-08-20T23:48:08.464Z,1.70
2022-08-20T23:50:37.625Z,2.03
2022-08-20T23:53:05.356Z,1.30
2022-08-20T23:55:32.856Z,1.48
2022-08-20T23:58:00.296Z,1.40
